Citation — WDE7253 — position and weather

sailwx.info

Track history (hours):
 
Tides and Currents Weather Stations Pressure Air Temp Water Temp Dewpoint Dewpoint Depression Visibility Wind Speed Wind Dir Waves Ship Positions

Citation

Owner: Turn Services, LLC, New Orleans, LA. More information available from US FCC via Universal Licensing System and Coast Guard Vessel Documentation Center.

Last reported at 2017-Dec-14 18:28 UTC. Time now 2017-Dec-16 07:13 UTC.
Position N 30°06' W 093°19'.

Length 37 m.

Type: Other ship. MMSI: 367390960.

Date/timePositionNaut miles runAvg speedWind from/ knotsBaromVisibWave heightAir tempDewpointWater temp
2017-Dec-14 18:28N 30°06' W 093°19'0 0.0
2017-Dec-14 18:00N 30°06' W 093°19'0 0.0
2017-Dec-14 17:30N 30°06' W 093°19'0 0.0
2017-Dec-14 17:00N 30°06' W 093°19'0 0.1
2017-Dec-14 16:31N 30°06' W 093°19'0 0.2
2017-Dec-14 16:00N 30°06' W 093°19'0 0.1
2017-Dec-14 14:58N 30°06' W 093°19'0 0.0
2017-Dec-14 14:25N 30°06' W 093°19'0 0.0
2017-Dec-14 14:00N 30°06' W 093°19'0 0.0
2017-Dec-14 13:30N 30°06' W 093°19'0 0.0
2017-Dec-14 13:00N 30°06' W 093°19'0 0.0
2017-Dec-14 12:31N 30°06' W 093°19'0 0.0
2017-Dec-14 12:00N 30°06' W 093°19'0 0.1
2017-Dec-14 11:30N 30°06' W 093°19'0 0.2
2017-Dec-14 11:00N 30°06' W 093°19'0 0.4
2017-Dec-14 10:30N 30°06' W 093°19'1 2.2
2017-Dec-14 09:58N 30°05' W 093°18'0 0.9
2017-Dec-14 09:31N 30°05' W 093°17'1 1.7
2017-Dec-14 09:00N 30°05' W 093°17'0 0.8
2017-Dec-14 08:30N 30°04' W 093°16'0 0.0
2017-Dec-14 08:01N 30°04' W 093°16'0 0.0
2017-Dec-14 07:30N 30°04' W 093°16'0 0.1
2017-Dec-14 06:59N 30°04' W 093°16'0 0.1
2017-Dec-14 06:30N 30°04' W 093°16'1 1.4
2017-Dec-14 06:00N 30°04' W 093°16'0 0.8
2017-Dec-14 05:30N 30°03' W 093°16'0 0.0
2017-Dec-14 05:00N 30°03' W 093°16'0 0.0
2017-Dec-14 04:30N 30°03' W 093°16'0 0.7
2017-Dec-14 04:00N 30°03' W 093°16'2 3.4
2017-Dec-14 03:31N 30°02' W 093°14'2 3.2
2017-Dec-14 03:00N 30°00' W 093°14'2 3.5
2017-Dec-14 02:30N 29°59' W 093°12'2 3.7
2017-Dec-14 02:00N 29°58' W 093°11'2 3.7
2017-Dec-14 01:31N 29°56' W 093°10'2 3.0
2017-Dec-14 01:00N 29°56' W 093°08'2 3.4
2017-Dec-14 00:30N 29°56' W 093°06'2 3.7
2017-Dec-13 23:58N 29°56' W 093°03'31 3.5
2017-Dec-13 14:57N 29°54' W 092°28'1 2.9
2017-Dec-13 14:30N 29°53' W 092°26'2 3.1
2017-Dec-13 13:57N 29°53' W 092°24'3 3.0
2017-Dec-13 12:57N 29°51' W 092°22'1 2.9
2017-Dec-13 12:30N 29°51' W 092°20'1 2.5
2017-Dec-13 12:01N 29°50' W 092°19'1 2.6
2017-Dec-13 11:30N 29°50' W 092°18'1 2.7
2017-Dec-13 11:00N 29°49' W 092°17'1 3.0
2017-Dec-13 10:30N 29°48' W 092°15'2 3.1
2017-Dec-13 10:00N 29°48' W 092°13'1 1.9
2017-Dec-13 09:30N 29°47' W 092°12'1 1.8
2017-Dec-13 09:00N 29°47' W 092°11'0 0.1
2017-Dec-13 08:30N 29°47' W 092°11'0 0.2
2017-Dec-13 08:01N 29°47' W 092°11'0 0.5
2017-Dec-13 07:31N 29°47' W 092°11'0 0.0
2017-Dec-13 07:01N 29°47' W 092°11'0 0.3
2017-Dec-13 06:31N 29°47' W 092°11'1 1.0
2017-Dec-13 06:00N 29°47' W 092°11'1 1.8
2017-Dec-13 05:30N 29°47' W 092°10'1 2.6
2017-Dec-13 05:00N 29°47' W 092°08'2 3.7
2017-Dec-13 04:31N 29°48' W 092°06'2 3.6
2017-Dec-13 04:00N 29°48' W 092°04'2 3.7
2017-Dec-13 03:30N 29°49' W 092°02'2 4.1
2017-Dec-13 03:00N 29°50' W 092°00'2 4.0
2017-Dec-13 02:30N 29°50' W 091°58'61 3.3
2017-Dec-12 07:54N 29°32' W 090°51'2 4.6
2017-Dec-12 07:30N 29°32' W 090°49'2 4.3
2017-Dec-12 07:00N 29°32' W 090°46'2 4.0
2017-Dec-12 06:30N 29°34' W 090°45'2 3.5
2017-Dec-12 06:00N 29°35' W 090°43'1 2.3
2017-Dec-12 05:30N 29°36' W 090°43'1 2.7
2017-Dec-12 05:00N 29°37' W 090°42'2 3.6
2017-Dec-12 04:30N 29°36' W 090°40'2 3.8
2017-Dec-12 04:00N 29°35' W 090°38'2 3.6
2017-Dec-12 03:30N 29°35' W 090°36'2 3.7
2017-Dec-12 03:00N 29°34' W 090°34'2 3.7
2017-Dec-12 02:30N 29°34' W 090°32'2 4.0
2017-Dec-12 02:00N 29°34' W 090°29'2 4.0
2017-Dec-12 01:29N 29°33' W 090°27'2 4.0
2017-Dec-12 00:59N 29°33' W 090°25'  
2017-Dec-09 06:54N 29°51' W 091°55'2 5.0
2017-Dec-09 06:25N 29°50' W 091°57'2 5.0
2017-Dec-09 05:58N 29°50' W 091°60'2 4.9
2017-Dec-09 05:30N 29°49' W 092°02'2 5.0
2017-Dec-09 05:00N 29°48' W 092°05'3 5.3
2017-Dec-09 04:30N 29°47' W 092°08'3 5.2
2017-Dec-09 04:00N 29°47' W 092°11'3 6.0
2017-Dec-09 03:30N 29°48' W 092°14'1 1.3
2017-Dec-09 03:00N 29°48' W 092°15'1 1.9
2017-Dec-09 02:31N 29°48' W 092°16'3 5.4
2017-Dec-09 02:00N 29°50' W 092°18'3 5.5
2017-Dec-09 01:30N 29°51' W 092°21'42 3.2
2017-Dec-08 12:30N 29°56' W 093°09'0 0.0
2017-Dec-08 10:38N 29°56' W 093°10'0 0.0
2017-Dec-08 10:30N 29°56' W 093°10'0 0.0
2017-Dec-08 10:00N 29°56' W 093°10'0 0.0
2017-Dec-08 09:30N 29°56' W 093°10'0 0.0
2017-Dec-08 09:01N 29°56' W 093°10'0 0.0
2017-Dec-08 08:30N 29°56' W 093°10'0 0.0
2017-Dec-08 08:00N 29°56' W 093°10'0 0.0
2017-Dec-08 07:30N 29°56' W 093°10'0 0.0
2017-Dec-08 07:00N 29°56' W 093°10'0 0.0
2017-Dec-08 06:30N 29°56' W 093°10'0 0.0
2017-Dec-08 06:01N 29°56' W 093°10'1 1.8
2017-Dec-08 05:30N 29°57' W 093°10'0 0.2
2017-Dec-08 05:00N 29°57' W 093°10'0 0.1
2017-Dec-08 04:31N 29°57' W 093°10'0 0.5
2017-Dec-08 04:01N 29°56' W 093°10'0 0.1
2017-Dec-08 03:30N 29°56' W 093°10'0 0.0
2017-Dec-08 03:01N 29°56' W 093°10'0 0.0
2017-Dec-08 02:30N 29°56' W 093°10'0 0.1
2017-Dec-08 02:01N 29°56' W 093°10'0 0.8
2017-Dec-08 01:30N 29°56' W 093°09'0 0.0
2017-Dec-08 01:01N 29°56' W 093°09'0 0.0
2017-Dec-08 00:31N 29°56' W 093°09'0 0.1
2017-Dec-08 00:00N 29°56' W 093°10'2 3.8
2017-Dec-07 23:30N 29°58' W 093°11'2 3.2
2017-Dec-07 23:01N 29°59' W 093°12'2 3.1
2017-Dec-07 22:30N 29°60' W 093°13'2 4.2
2017-Dec-07 22:01N 30°02' W 093°15'2 3.8
2017-Dec-07 21:30N 30°03' W 093°16'2 4.9
2017-Dec-07 21:01N 30°05' W 093°18'0 0.2
2017-Dec-07 20:30N 30°05' W 093°18'1 2.4
2017-Dec-07 20:00N 30°06' W 093°19'0 0.6
2017-Dec-07 19:31N 30°06' W 093°19'0 0.0
2017-Dec-07 19:00N 30°06' W 093°19'0 0.0
2017-Dec-07 18:31N 30°06' W 093°19'0 0.0
2017-Dec-07 18:01N 30°06' W 093°19'0 0.0
2017-Dec-07 17:30N 30°06' W 093°19'0 0.0
2017-Dec-07 17:00N 30°06' W 093°19'0 0.0
2017-Dec-07 16:30N 30°06' W 093°19'0 0.1
2017-Dec-07 16:01N 30°06' W 093°19'0 0.1
2017-Dec-07 15:30N 30°06' W 093°19'1 2.1
2017-Dec-07 15:01N 30°05' W 093°20'0 0.1
2017-Dec-07 14:31N 30°05' W 093°20'0 0.0
2017-Dec-07 14:01N 30°05' W 093°20'0 0.5
2017-Dec-07 13:31N 30°05' W 093°20'0 0.5
2017-Dec-07 13:01N 30°05' W 093°20'0 0.0
2017-Dec-07 12:30N 30°05' W 093°20'0 0.5
2017-Dec-07 12:01N 30°05' W 093°20'0 0.4
2017-Dec-07 11:30N 30°05' W 093°20'0 0.1
2017-Dec-07 11:01N 30°05' W 093°20'0 0.0
2017-Dec-07 10:31N 30°05' W 093°20'0 0.0
2017-Dec-07 10:01N 30°05' W 093°20'0 0.9
2017-Dec-07 09:30N 30°05' W 093°20'0 0.1
2017-Dec-07 09:01N 30°05' W 093°20'0 0.0
2017-Dec-07 08:31N 30°05' W 093°20'0 0.1
2017-Dec-07 08:00N 30°05' W 093°20'0 0.0
2017-Dec-07 07:30N 30°05' W 093°20'1 2.9
2017-Dec-07 07:01N 30°06' W 093°19'1 2.8
2017-Dec-07 06:31N 30°05' W 093°18'1 1.2
2017-Dec-07 06:01N 30°05' W 093°17'1 2.2
2017-Dec-07 05:30N 30°04' W 093°16'0 0.5
2017-Dec-07 05:01N 30°04' W 093°16'1 2.5
2017-Dec-07 04:30N 30°03' W 093°16'0 0.1
2017-Dec-07 04:01N 30°03' W 093°16'0 0.0
2017-Dec-07 03:30N 30°03' W 093°16'0 0.1
2017-Dec-07 03:01N 30°03' W 093°16'0 0.1
2017-Dec-07 02:31N 30°03' W 093°16'1 1.3
2017-Dec-07 02:01N 30°02' W 093°15'9 3.3
2017-Dec-06 23:11N 29°56' W 093°07'1 3.8
2017-Dec-06 22:59N 29°56' W 093°06'  
Track history (hours):
 
Tides and Currents Weather Stations Pressure Air Temp Water Temp Dewpoint Dewpoint Depression Visibility Wind Speed Wind Dir Waves Ship Positions

Citation

Owner: Turn Services, LLC, New Orleans, LA. More information available from US FCC via Universal Licensing System and Coast Guard Vessel Documentation Center.

Last reported at 2017-Dec-14 18:28 UTC. Time now 2017-Dec-16 07:13 UTC.
Position N 30°06' W 093°19'.

Length 37 m.

Type: Other ship. MMSI: 367390960.

Date/timePositionNaut miles runAvg speedWind from/ knotsBaromVisibWave heightAir tempDewpointWater temp
2017-Dec-14 18:28N 30°06' W 093°19'0 0.0
2017-Dec-14 18:00N 30°06' W 093°19'0 0.0
2017-Dec-14 17:30N 30°06' W 093°19'0 0.0
2017-Dec-14 17:00N 30°06' W 093°19'0 0.1
2017-Dec-14 16:31N 30°06' W 093°19'0 0.2
2017-Dec-14 16:00N 30°06' W 093°19'0 0.1
2017-Dec-14 14:58N 30°06' W 093°19'0 0.0
2017-Dec-14 14:25N 30°06' W 093°19'0 0.0
2017-Dec-14 14:00N 30°06' W 093°19'0 0.0
2017-Dec-14 13:30N 30°06' W 093°19'0 0.0
2017-Dec-14 13:00N 30°06' W 093°19'0 0.0
2017-Dec-14 12:31N 30°06' W 093°19'0 0.0
2017-Dec-14 12:00N 30°06' W 093°19'0 0.1
2017-Dec-14 11:30N 30°06' W 093°19'0 0.2
2017-Dec-14 11:00N 30°06' W 093°19'0 0.4
2017-Dec-14 10:30N 30°06' W 093°19'1 2.2
2017-Dec-14 09:58N 30°05' W 093°18'0 0.9
2017-Dec-14 09:31N 30°05' W 093°17'1 1.7
2017-Dec-14 09:00N 30°05' W 093°17'0 0.8
2017-Dec-14 08:30N 30°04' W 093°16'0 0.0
2017-Dec-14 08:01N 30°04' W 093°16'0 0.0
2017-Dec-14 07:30N 30°04' W 093°16'0 0.1
2017-Dec-14 06:59N 30°04' W 093°16'0 0.1
2017-Dec-14 06:30N 30°04' W 093°16'1 1.4
2017-Dec-14 06:00N 30°04' W 093°16'0 0.8
2017-Dec-14 05:30N 30°03' W 093°16'0 0.0
2017-Dec-14 05:00N 30°03' W 093°16'0 0.0
2017-Dec-14 04:30N 30°03' W 093°16'0 0.7
2017-Dec-14 04:00N 30°03' W 093°16'2 3.4
2017-Dec-14 03:31N 30°02' W 093°14'2 3.2
2017-Dec-14 03:00N 30°00' W 093°14'2 3.5
2017-Dec-14 02:30N 29°59' W 093°12'2 3.7
2017-Dec-14 02:00N 29°58' W 093°11'2 3.7
2017-Dec-14 01:31N 29°56' W 093°10'2 3.0
2017-Dec-14 01:00N 29°56' W 093°08'2 3.4
2017-Dec-14 00:30N 29°56' W 093°06'2 3.7
2017-Dec-13 23:58N 29°56' W 093°03'31 3.5
2017-Dec-13 14:57N 29°54' W 092°28'1 2.9
2017-Dec-13 14:30N 29°53' W 092°26'2 3.1
2017-Dec-13 13:57N 29°53' W 092°24'3 3.0
2017-Dec-13 12:57N 29°51' W 092°22'1 2.9
2017-Dec-13 12:30N 29°51' W 092°20'1 2.5
2017-Dec-13 12:01N 29°50' W 092°19'1 2.6
2017-Dec-13 11:30N 29°50' W 092°18'1 2.7
2017-Dec-13 11:00N 29°49' W 092°17'1 3.0
2017-Dec-13 10:30N 29°48' W 092°15'2 3.1
2017-Dec-13 10:00N 29°48' W 092°13'1 1.9
2017-Dec-13 09:30N 29°47' W 092°12'1 1.8
2017-Dec-13 09:00N 29°47' W 092°11'0 0.1
2017-Dec-13 08:30N 29°47' W 092°11'0 0.2
2017-Dec-13 08:01N 29°47' W 092°11'0 0.5
2017-Dec-13 07:31N 29°47' W 092°11'0 0.0
2017-Dec-13 07:01N 29°47' W 092°11'0 0.3
2017-Dec-13 06:31N 29°47' W 092°11'1 1.0
2017-Dec-13 06:00N 29°47' W 092°11'1 1.8
2017-Dec-13 05:30N 29°47' W 092°10'1 2.6
2017-Dec-13 05:00N 29°47' W 092°08'2 3.7
2017-Dec-13 04:31N 29°48' W 092°06'2 3.6
2017-Dec-13 04:00N 29°48' W 092°04'2 3.7
2017-Dec-13 03:30N 29°49' W 092°02'2 4.1
2017-Dec-13 03:00N 29°50' W 092°00'2 4.0
2017-Dec-13 02:30N 29°50' W 091°58'61 3.3
2017-Dec-12 07:54N 29°32' W 090°51'2 4.6
2017-Dec-12 07:30N 29°32' W 090°49'2 4.3
2017-Dec-12 07:00N 29°32' W 090°46'2 4.0
2017-Dec-12 06:30N 29°34' W 090°45'2 3.5
2017-Dec-12 06:00N 29°35' W 090°43'1 2.3
2017-Dec-12 05:30N 29°36' W 090°43'1 2.7
2017-Dec-12 05:00N 29°37' W 090°42'2 3.6
2017-Dec-12 04:30N 29°36' W 090°40'2 3.8
2017-Dec-12 04:00N 29°35' W 090°38'2 3.6
2017-Dec-12 03:30N 29°35' W 090°36'2 3.7
2017-Dec-12 03:00N 29°34' W 090°34'2 3.7
2017-Dec-12 02:30N 29°34' W 090°32'2 4.0
2017-Dec-12 02:00N 29°34' W 090°29'2 4.0
2017-Dec-12 01:29N 29°33' W 090°27'2 4.0
2017-Dec-12 00:59N 29°33' W 090°25'  
2017-Dec-09 06:54N 29°51' W 091°55'2 5.0
2017-Dec-09 06:25N 29°50' W 091°57'2 5.0
2017-Dec-09 05:58N 29°50' W 091°60'2 4.9
2017-Dec-09 05:30N 29°49' W 092°02'2 5.0
2017-Dec-09 05:00N 29°48' W 092°05'3 5.3
2017-Dec-09 04:30N 29°47' W 092°08'3 5.2
2017-Dec-09 04:00N 29°47' W 092°11'3 6.0
2017-Dec-09 03:30N 29°48' W 092°14'1 1.3
2017-Dec-09 03:00N 29°48' W 092°15'1 1.9
2017-Dec-09 02:31N 29°48' W 092°16'3 5.4
2017-Dec-09 02:00N 29°50' W 092°18'3 5.5
2017-Dec-09 01:30N 29°51' W 092°21'42 3.2
2017-Dec-08 12:30N 29°56' W 093°09'0 0.0
2017-Dec-08 10:38N 29°56' W 093°10'0 0.0
2017-Dec-08 10:30N 29°56' W 093°10'0 0.0
2017-Dec-08 10:00N 29°56' W 093°10'0 0.0
2017-Dec-08 09:30N 29°56' W 093°10'0 0.0
2017-Dec-08 09:01N 29°56' W 093°10'0 0.0
2017-Dec-08 08:30N 29°56' W 093°10'0 0.0
2017-Dec-08 08:00N 29°56' W 093°10'0 0.0
2017-Dec-08 07:30N 29°56' W 093°10'0 0.0
2017-Dec-08 07:00N 29°56' W 093°10'0 0.0
2017-Dec-08 06:30N 29°56' W 093°10'0 0.0
2017-Dec-08 06:01N 29°56' W 093°10'1 1.8
2017-Dec-08 05:30N 29°57' W 093°10'0 0.2
2017-Dec-08 05:00N 29°57' W 093°10'0 0.1
2017-Dec-08 04:31N 29°57' W 093°10'0 0.5
2017-Dec-08 04:01N 29°56' W 093°10'0 0.1
2017-Dec-08 03:30N 29°56' W 093°10'0 0.0
2017-Dec-08 03:01N 29°56' W 093°10'0 0.0
2017-Dec-08 02:30N 29°56' W 093°10'0 0.1
2017-Dec-08 02:01N 29°56' W 093°10'0 0.8
2017-Dec-08 01:30N 29°56' W 093°09'0 0.0
2017-Dec-08 01:01N 29°56' W 093°09'0 0.0
2017-Dec-08 00:31N 29°56' W 093°09'0 0.1
2017-Dec-08 00:00N 29°56' W 093°10'2 3.8
2017-Dec-07 23:30N 29°58' W 093°11'2 3.2
2017-Dec-07 23:01N 29°59' W 093°12'2 3.1
2017-Dec-07 22:30N 29°60' W 093°13'2 4.2
2017-Dec-07 22:01N 30°02' W 093°15'2 3.8
2017-Dec-07 21:30N 30°03' W 093°16'2 4.9
2017-Dec-07 21:01N 30°05' W 093°18'0 0.2
2017-Dec-07 20:30N 30°05' W 093°18'1 2.4
2017-Dec-07 20:00N 30°06' W 093°19'0 0.6
2017-Dec-07 19:31N 30°06' W 093°19'0 0.0
2017-Dec-07 19:00N 30°06' W 093°19'0 0.0
2017-Dec-07 18:31N 30°06' W 093°19'0 0.0
2017-Dec-07 18:01N 30°06' W 093°19'0 0.0
2017-Dec-07 17:30N 30°06' W 093°19'0 0.0
2017-Dec-07 17:00N 30°06' W 093°19'0 0.0
2017-Dec-07 16:30N 30°06' W 093°19'0 0.1
2017-Dec-07 16:01N 30°06' W 093°19'0 0.1
2017-Dec-07 15:30N 30°06' W 093°19'1 2.1
2017-Dec-07 15:01N 30°05' W 093°20'0 0.1
2017-Dec-07 14:31N 30°05' W 093°20'0 0.0
2017-Dec-07 14:01N 30°05' W 093°20'0 0.5
2017-Dec-07 13:31N 30°05' W 093°20'0 0.5
2017-Dec-07 13:01N 30°05' W 093°20'0 0.0
2017-Dec-07 12:30N 30°05' W 093°20'0 0.5
2017-Dec-07 12:01N 30°05' W 093°20'0 0.4
2017-Dec-07 11:30N 30°05' W 093°20'0 0.1
2017-Dec-07 11:01N 30°05' W 093°20'0 0.0
2017-Dec-07 10:31N 30°05' W 093°20'0 0.0
2017-Dec-07 10:01N 30°05' W 093°20'0 0.9
2017-Dec-07 09:30N 30°05' W 093°20'0 0.1
2017-Dec-07 09:01N 30°05' W 093°20'0 0.0
2017-Dec-07 08:31N 30°05' W 093°20'0 0.1
2017-Dec-07 08:00N 30°05' W 093°20'0 0.0
2017-Dec-07 07:30N 30°05' W 093°20'1 2.9
2017-Dec-07 07:01N 30°06' W 093°19'1 2.8
2017-Dec-07 06:31N 30°05' W 093°18'1 1.2
2017-Dec-07 06:01N 30°05' W 093°17'1 2.2
2017-Dec-07 05:30N 30°04' W 093°16'0 0.5
2017-Dec-07 05:01N 30°04' W 093°16'1 2.5
2017-Dec-07 04:30N 30°03' W 093°16'0 0.1
2017-Dec-07 04:01N 30°03' W 093°16'0 0.0
2017-Dec-07 03:30N 30°03' W 093°16'0 0.1
2017-Dec-07 03:01N 30°03' W 093°16'0 0.1
2017-Dec-07 02:31N 30°03' W 093°16'1 1.3
2017-Dec-07 02:01N 30°02' W 093°15'9 3.3
2017-Dec-06 23:11N 29°56' W 093°07'1 3.8
2017-Dec-06 22:59N 29°56' W 093°06'  

Dump ship's entire track history